Time;durP1;ratioP1;P1;durP2;ratioP2;P2;SDS_P1;SDS_P2;PMS_P1;PMS_P2;Temp;Humidity;BMP_temperature;BMP_pressure;BME280_temperature;BME280_humidity;BME280_pressure;Samples;Min_cycle;Max_cycle;Signal;HPM_P1;HPM_P2
2023/02/08 00:01:00;;;;;;;26.20;13.03;;;;;;;-8.41;100.00;103462.47;5027223;28;20461;-73
2023/02/08 00:03:28;;;;;;;25.87;14.00;;;;;;;-8.35;100.00;103462.16;5027365;28;20479;-73
2023/02/08 00:05:54;;;;;;;23.23;12.83;;;;;;;-8.35;100.00;103456.16;5023922;28;21029;-73
2023/02/08 00:08:20;;;;;;;29.03;12.87;;;;;;;-8.33;100.00;103455.59;5030055;28;20485;-73
2023/02/08 00:10:49;;;;;;;28.57;13.37;;;;;;;-8.31;100.00;103458.28;5027517;28;20485;-72
2023/02/08 00:13:15;;;;;;;26.50;13.67;;;;;;;-8.29;100.00;103455.13;5026619;28;20483;-72
2023/02/08 00:15:43;;;;;;;25.57;12.87;;;;;;;-8.22;100.00;103446.47;5031251;28;20461;-72
2023/02/08 00:18:09;;;;;;;28.70;14.13;;;;;;;-8.18;100.00;103453.63;5026526;28;20469;-73
2023/02/08 00:20:38;;;;;;;32.63;14.43;;;;;;;-8.18;100.00;103456.16;5027596;28;20462;-73
2023/02/08 00:23:04;;;;;;;34.23;15.13;;;;;;;-8.19;100.00;103440.06;5021786;28;20470;-73
2023/02/08 00:25:31;;;;;;;32.73;13.70;;;;;;;-8.16;100.00;103448.69;5031267;28;20832;-72
2023/02/08 00:28:00;;;;;;;26.97;13.97;;;;;;;-8.17;100.00;103447.81;5024946;28;20465;-72
2023/02/08 00:30:27;;;;;;;28.13;14.30;;;;;;;-8.24;100.00;103442.91;5021649;28;20484;-73
2023/02/08 00:32:54;;;;;;;27.30;15.47;;;;;;;-8.21;100.00;103453.34;5029026;28;20616;-73
2023/02/08 00:35:20;;;;;;;25.87;13.80;;;;;;;-8.03;100.00;103451.66;5050950;23;20500;-72
2023/02/08 00:37:47;;;;;;;27.37;13.93;;;;;;;-7.95;100.00;103445.66;5047328;28;20555;-72
2023/02/08 00:40:13;;;;;;;27.47;13.43;;;;;;;-8.01;100.00;103456.09;5041348;28;20458;-71
2023/02/08 00:42:40;;;;;;;27.83;14.30;;;;;;;-7.96;100.00;103456.56;5027992;28;20457;-72
2023/02/08 00:45:09;;;;;;;31.90;14.73;;;;;;;-8.04;100.00;103449.84;5025518;28;20467;-72
2023/02/08 00:47:35;;;;;;;33.30;14.30;;;;;;;-7.95;100.00;103453.25;5045641;28;20451;-72
2023/02/08 00:50:01;;;;;;;24.33;13.03;;;;;;;-7.94;100.00;103449.97;5049317;28;20603;-72
2023/02/08 00:52:28;;;;;;;28.53;14.23;;;;;;;-7.92;100.00;103460.25;5050678;28;20449;-72
2023/02/08 00:54:54;;;;;;;25.50;12.43;;;;;;;-7.92;100.00;103462.81;5029166;28;20448;-72
2023/02/08 00:57:21;;;;;;;27.33;14.37;;;;;;;-7.88;100.00;103457.25;5044491;28;20457;-72
2023/02/08 00:59:47;;;;;;;31.43;13.73;;;;;;;-7.88;100.00;103455.66;5051315;28;20974;-72
2023/02/08 01:02:16;;;;;;;29.97;13.43;;;;;;;-7.91;100.00;103454.47;5049632;28;20542;-72
2023/02/08 01:04:44;;;;;;;24.33;13.67;;;;;;;-7.96;100.00;103464.16;5023384;28;20459;-72
2023/02/08 01:07:12;;;;;;;26.17;14.63;;;;;;;-8.31;100.00;103458.28;5046681;28;20446;-71
2023/02/08 01:09:39;;;;;;;30.93;14.33;;;;;;;-8.38;100.00;103456.78;5044631;28;20473;-72
2023/02/08 01:12:05;;;;;;;26.77;13.10;;;;;;;-8.52;100.00;103462.19;5032446;28;20470;-72
2023/02/08 01:14:32;;;;;;;27.97;15.10;;;;;;;-8.58;100.00;103462.50;5025954;28;20609;-72
2023/02/08 01:16:59;;;;;;;26.40;12.03;;;;;;;-8.62;100.00;103465.44;5041459;28;20818;-71
2023/02/08 01:19:27;;;;;;;26.37;13.17;;;;;;;-8.64;100.00;103459.34;5047013;28;21035;-72
2023/02/08 01:21:53;;;;;;;24.10;13.17;;;;;;;-8.42;100.00;103457.28;5026711;28;20565;-71
2023/02/08 01:24:20;;;;;;;28.33;14.40;;;;;;;-8.53;100.00;103458.78;5028149;28;20459;-72
2023/02/08 01:31:13;;;;;;;21.33;11.23;;;;;;;-8.54;100.00;103458.63;5039675;28;20470;-72
2023/02/08 01:33:39;;;;;;;23.90;11.47;;;;;;;-8.49;100.00;103458.31;5047077;28;20569;-71
2023/02/08 01:36:08;;;;;;;28.43;14.60;;;;;;;-8.38;100.00;103451.72;5042754;28;20466;-70
2023/02/08 01:38:36;;;;;;;23.53;12.67;;;;;;;-8.38;100.00;103450.06;5049245;28;20577;-72
2023/02/08 01:41:03;;;;;;;25.13;11.93;;;;;;;-8.45;100.00;103450.25;5038566;28;21082;-72
2023/02/08 01:43:32;;;;;;;26.73;13.80;;;;;;;-8.61;100.00;103445.38;5037465;28;20448;-72
2023/02/08 01:45:58;;;;;;;25.77;14.10;;;;;;;-8.73;100.00;103455.94;5046990;28;20818;-72
2023/02/08 01:48:29;;;;;;;29.40;13.20;;;;;;;-8.64;100.00;103459.34;5032326;28;20874;-71
2023/02/08 01:50:59;;;;;;;20.47;11.70;;;;;;;-8.65;100.00;103455.94;5031732;28;20810;-72
2023/02/08 01:53:30;;;;;;;29.67;14.43;;;;;;;-8.76;100.00;103453.97;5023491;28;20460;-72
2023/02/08 01:56:01;;;;;;;24.33;13.13;;;;;;;-8.90;100.00;103459.34;5031080;28;20460;-72
2023/02/08 01:58:31;;;;;;;29.50;14.40;;;;;;;-8.79;100.00;103449.53;5030934;28;20935;-72
2023/02/08 02:00:58;;;;;;;36.23;14.13;;;;;;;-8.71;100.00;103454.44;5029455;28;20470;-72
2023/02/08 02:03:24;;;;;;;25.37;13.40;;;;;;;-8.68;100.00;103444.63;5031387;28;20461;-72
2023/02/08 02:05:57;;;;;;;31.10;15.10;;;;;;;-8.60;100.00;103447.16;5034143;28;20499;-71
2023/02/08 02:08:24;;;;;;;23.20;12.73;;;;;;;-8.62;100.00;103443.59;5042811;28;21018;-70
2023/02/08 02:10:52;;;;;;;26.70;14.27;;;;;;;-8.54;100.00;103438.38;5039312;28;20463;-72
2023/02/08 02:13:21;;;;;;;28.00;13.07;;;;;;;-8.49;100.00;103437.19;5045397;28;20953;-72
2023/02/08 02:15:49;;;;;;;27.50;13.07;;;;;;;-8.66;100.00;103438.09;5028955;28;20498;-71
2023/02/08 02:18:23;;;;;;;26.30;14.17;;;;;;;-8.59;100.00;103422.75;5046248;28;20481;-71
2023/02/08 02:21:06;;;;;;;28.07;13.17;;;;;;;-8.63;100.00;103430.78;5043060;28;20472;-71
2023/02/08 02:24:09;;;;;;;32.93;13.77;;;;;;;-8.55;100.00;103431.53;5030221;28;20937;-72
2023/02/08 02:26:58;;;;;;;27.90;12.60;;;;;;;-8.79;100.00;103438.53;5028531;28;20504;-72
2023/02/08 02:30:07;;;;;;;21.60;11.70;;;;;;;-8.70;100.00;103436.00;5051504;28;20476;-72
2023/02/08 02:32:50;;;;;;;23.37;12.50;;;;;;;-8.51;100.00;103428.53;5038410;28;20810;-72
2023/02/08 02:35:23;;;;;;;25.80;12.27;;;;;;;-8.50;100.00;103428.69;5036567;28;20458;-71
2023/02/08 02:37:59;;;;;;;31.57;13.97;;;;;;;-8.58;100.00;103435.56;5029692;28;20480;-71
2023/02/08 02:40:34;;;;;;;25.90;13.47;;;;;;;-8.62;100.00;103436.00;5048282;28;20466;-71
2023/02/08 02:45:59;;;;;;;26.80;12.80;;;;;;;-8.91;100.00;103438.22;5045120;28;20463;-72
2023/02/08 02:48:32;;;;;;;30.27;12.73;;;;;;;-9.15;100.00;103442.63;5042427;28;20453;-72
2023/02/08 02:51:04;;;;;;;24.90;13.43;;;;;;;-9.37;100.00;103443.81;5041559;28;20461;-72
2023/02/08 02:53:38;;;;;;;28.90;12.23;;;;;;;-9.25;100.00;103452.59;5044645;28;20458;-71
2023/02/08 02:56:09;;;;;;;25.97;13.03;;;;;;;-9.22;100.00;103442.78;5047655;28;20975;-72
2023/02/08 02:58:37;;;;;;;24.97;12.00;;;;;;;-9.21;100.00;103447.09;5048253;28;20482;-72
2023/02/08 03:01:04;;;;;;;29.07;12.53;;;;;;;-9.39;100.00;103443.66;5045198;28;20465;-72
2023/02/08 03:03:34;;;;;;;23.63;12.43;;;;;;;-9.17;100.00;103449.19;5046419;28;21040;-72
2023/02/08 03:06:04;;;;;;;23.60;12.37;;;;;;;-9.14;100.00;103452.03;5047821;28;20459;-71
2023/02/08 03:08:49;;;;;;;19.80;11.00;;;;;;;-9.13;100.00;103447.84;5048182;28;20493;-72
2023/02/08 03:11:20;;;;;;;18.80;11.27;;;;;;;-9.16;100.00;103458.56;5048774;28;20447;-72
2023/02/08 03:14:02;;;;;;;25.60;13.77;;;;;;;-9.00;100.00;103453.38;5050844;28;20955;-72
2023/02/08 03:16:38;;;;;;;32.70;13.93;;;;;;;-8.88;100.00;103460.38;5052105;28;20455;-71
2023/02/08 03:19:14;;;;;;;20.07;11.03;;;;;;;-9.20;100.00;103464.06;5045337;28;20486;-72
2023/02/08 03:21:47;;;;;;;27.13;12.73;;;;;;;-9.20;100.00;103470.72;5047694;28;20469;-72
2023/02/08 03:24:25;;;;;;;21.80;12.00;;;;;;;-9.37;100.00;103469.94;5042921;28;20441;-71
2023/02/08 03:26:57;;;;;;;20.47;10.63;;;;;;;-9.43;100.00;103466.78;5046361;28;20469;-71
2023/02/08 03:29:36;;;;;;;22.93;11.03;;;;;;;-9.59;100.00;103473.59;5045160;28;20866;-72
2023/02/08 03:32:09;;;;;;;23.00;11.90;;;;;;;-9.47;100.00;103468.88;5047467;28;20453;-72
2023/02/08 03:34:45;;;;;;;23.80;11.73;;;;;;;-9.64;100.00;103474.75;5045839;28;21015;-71
2023/02/08 03:37:16;;;;;;;21.83;12.10;;;;;;;-9.55;100.00;103483.25;5043837;28;20453;-72
2023/02/08 03:39:44;;;;;;;24.07;12.50;;;;;;;-9.40;100.00;103486.44;5037918;28;20485;-72
2023/02/08 03:42:16;;;;;;;23.60;12.47;;;;;;;-9.35;100.00;103481.09;5047499;28;20967;-71
2023/02/08 03:44:48;;;;;;;23.83;10.87;;;;;;;-9.12;100.00;103481.63;5047207;28;20447;-72
2023/02/08 03:47:19;;;;;;;22.03;12.00;;;;;;;-9.07;100.00;103486.38;5045923;28;21245;-72
2023/02/08 03:49:51;;;;;;;22.97;12.17;;;;;;;-8.97;100.00;103486.56;5028791;28;20486;-72
2023/02/08 03:52:18;;;;;;;27.00;11.87;;;;;;;-9.08;100.00;103487.13;5038327;28;20441;-72
2023/02/08 03:54:49;;;;;;;26.33;11.80;;;;;;;-9.07;100.00;103485.50;5047092;28;20460;-72
2023/02/08 03:57:19;;;;;;;21.00;11.67;;;;;;;-9.15;100.00;103482.19;5044722;28;20453;-71
2023/02/08 03:59:51;;;;;;;21.53;10.63;;;;;;;-9.05;100.00;103486.53;5045610;28;20572;-71
2023/02/08 04:02:20;;;;;;;21.73;11.30;;;;;;;-9.18;100.00;103492.00;5045231;28;20465;-71
2023/02/08 04:04:51;;;;;;;22.77;11.33;;;;;;;-9.22;100.00;103488.28;5045720;28;20460;-72
2023/02/08 04:07:18;;;;;;;19.73;10.27;;;;;;;-9.30;100.00;103491.69;5028295;28;20461;-72
2023/02/08 04:09:45;;;;;;;22.77;11.63;;;;;;;-9.40;100.00;103492.38;5046649;28;20981;-71
2023/02/08 04:12:11;;;;;;;25.80;12.17;;;;;;;-9.26;100.00;103497.94;5041948;28;20451;-72
2023/02/08 04:14:38;;;;;;;23.77;11.07;;;;;;;-9.20;100.00;103496.94;5047321;28;20455;-71
2023/02/08 04:17:05;;;;;;;19.70;11.70;;;;;;;-9.30;100.00;103490.78;5043331;28;20470;-72
2023/02/08 04:19:32;;;;;;;22.33;11.13;;;;;;;-9.36;100.00;103491.06;5031723;28;20481;-72
2023/02/08 04:21:59;;;;;;;23.60;11.63;;;;;;;-9.40;100.00;103494.91;5048452;28;20527;-72
2023/02/08 04:24:26;;;;;;;22.43;10.13;;;;;;;-9.26;100.00;103487.81;5044945;28;20457;-72
2023/02/08 04:26:52;;;;;;;22.47;11.37;;;;;;;-9.36;100.00;103488.53;5046832;28;20454;-72
2023/02/08 04:29:18;;;;;;;21.97;12.03;;;;;;;-9.43;100.00;103483.59;5050864;28;20484;-71
2023/02/08 04:31:45;;;;;;;29.40;12.17;;;;;;;-9.44;100.00;103480.19;5049875;28;20458;-72
2023/02/08 04:34:11;;;;;;;21.87;11.07;;;;;;;-9.45;100.00;103474.97;5049892;28;20462;-72
2023/02/08 04:36:38;;;;;;;26.57;12.80;;;;;;;-9.54;100.00;103478.34;5045485;28;20476;-72
2023/02/08 04:39:06;;;;;;;28.60;12.50;;;;;;;-9.58;100.00;103473.75;5048775;28;20493;-71
2023/02/08 04:41:32;;;;;;;28.30;13.47;;;;;;;-9.49;100.00;103472.91;5049486;28;20466;-71
2023/02/08 04:43:59;;;;;;;24.80;13.07;;;;;;;-9.33;100.00;103469.50;5050369;28;20467;-72
2023/02/08 04:46:25;;;;;;;25.03;11.80;;;;;;;-9.28;100.00;103462.41;5044833;28;20960;-72
2023/02/08 04:48:52;;;;;;;30.93;12.33;;;;;;;-9.19;100.00;103464.94;5054255;28;20477;-72
2023/02/08 04:51:18;;;;;;;29.07;11.30;;;;;;;-9.18;100.00;103460.06;5047708;28;20819;-72
2023/02/08 04:53:45;;;;;;;28.20;11.37;;;;;;;-9.23;100.00;103463.75;5054606;28;20463;-71
2023/02/08 04:56:13;;;;;;;21.90;11.33;;;;;;;-9.27;100.00;103464.16;5049251;28;20461;-72
2023/02/08 04:58:39;;;;;;;24.10;11.40;;;;;;;-9.24;100.00;103461.06;5057290;28;20472;-72
2023/02/08 05:01:06;;;;;;;26.40;11.80;;;;;;;-9.23;100.00;103465.38;5049626;28;20495;-72
2023/02/08 05:03:32;;;;;;;23.93;11.87;;;;;;;-9.26;100.00;103463.44;5048763;28;20462;-72
2023/02/08 05:06:00;;;;;;;25.30;12.27;;;;;;;-9.17;100.00;103463.47;5044459;28;20921;-72
2023/02/08 05:08:27;;;;;;;26.83;12.70;;;;;;;-9.11;100.00;103460.63;5047027;28;21004;-71
2023/02/08 05:10:56;;;;;;;27.10;12.17;;;;;;;-9.05;100.00;103463.78;5044234;28;20536;-72
2023/02/08 05:13:24;;;;;;;21.87;11.20;;;;;;;-9.01;100.00;103463.34;5044235;28;20458;-72
2023/02/08 05:15:50;;;;;;;24.27;13.00;;;;;;;-9.02;100.00;103462.47;5044580;28;20489;-72
2023/02/08 05:18:16;;;;;;;23.53;12.03;;;;;;;-8.99;100.00;103457.72;5046026;28;20483;-72
2023/02/08 05:20:43;;;;;;;33.70;12.13;;;;;;;-8.97;100.00;103456.22;5047755;28;20462;-72
2023/02/08 05:23:10;;;;;;;27.90;12.00;;;;;;;-9.02;100.00;103464.06;5055418;28;20779;-72
2023/02/08 05:25:37;;;;;;;30.63;12.87;;;;;;;-9.02;100.00;103462.47;5049850;28;20832;-72
2023/02/08 05:28:04;;;;;;;19.20;11.53;;;;;;;-9.01;100.00;103466.75;5053574;28;20582;-72
2023/02/08 05:30:32;;;;;;;21.63;11.93;;;;;;;-8.95;100.00;103466.50;5050996;28;20446;-72
2023/02/08 05:32:58;;;;;;;28.90;12.90;;;;;;;-8.90;100.00;103470.34;5046419;28;20449;-71
2023/02/08 05:35:24;;;;;;;34.97;13.80;;;;;;;-8.93;100.00;103461.56;5047326;28;20821;-71
2023/02/08 05:37:51;;;;;;;25.23;12.57;;;;;;;-8.86;100.00;103471.56;5046233;28;20815;-71
2023/02/08 05:40:18;;;;;;;24.80;11.47;;;;;;;-8.90;100.00;103470.34;5050892;28;20454;-71
2023/02/08 05:42:44;;;;;;;26.23;12.97;;;;;;;-8.88;100.00;103473.94;5051984;28;20515;-71
2023/02/08 05:45:10;;;;;;;26.80;13.57;;;;;;;-8.82;100.00;103474.53;5051296;28;20553;-70
2023/02/08 05:47:38;;;;;;;28.33;13.90;;;;;;;-8.84;100.00;103470.94;5047706;28;20449;-71
2023/02/08 05:50:09;;;;;;;29.43;13.23;;;;;;;-8.82;100.00;103472.00;5053509;28;20480;-71
2023/02/08 05:52:36;;;;;;;27.60;12.73;;;;;;;-8.71;100.00;103477.22;5055973;28;20747;-72
2023/02/08 05:55:03;;;;;;;40.10;14.67;;;;;;;-8.67;100.00;103472.63;5054092;28;20743;-70
2023/02/08 05:57:32;;;;;;;27.90;13.50;;;;;;;-8.74;100.00;103469.31;5049630;28;20541;-71
2023/02/08 05:59:59;;;;;;;26.57;12.47;;;;;;;-8.74;100.00;103470.22;5045719;28;20951;-71
2023/02/08 06:02:25;;;;;;;27.37;15.00;;;;;;;-8.73;100.00;103468.59;5043341;28;20474;-72
2023/02/08 06:04:53;;;;;;;27.47;14.33;;;;;;;-8.68;100.00;103468.28;5045683;28;20464;-71
2023/02/08 06:07:20;;;;;;;28.63;14.23;;;;;;;-8.72;100.00;103473.81;5049954;28;20548;-72
2023/02/08 06:09:46;;;;;;;39.30;19.47;;;;;;;-8.65;100.00;103476.19;5050529;28;20468;-71
2023/02/08 06:12:12;;;;;;;40.13;19.23;;;;;;;-8.70;100.00;103479.91;5040306;28;20455;-71
2023/02/08 06:14:39;;;;;;;40.23;17.90;;;;;;;-8.68;100.00;103487.63;5047187;28;20462;-71
2023/02/08 06:17:05;;;;;;;36.30;16.77;;;;;;;-8.67;100.00;103480.22;5035397;28;20474;-72
2023/02/08 06:19:32;;;;;;;32.07;14.50;;;;;;;-8.58;100.00;103482.75;5082036;22;20877;-77
2023/02/08 06:22:00;;;;;;;35.33;15.77;;;;;;;-8.57;100.00;103492.09;5056105;28;20468;-77
2023/02/08 06:24:26;;;;;;;24.73;13.07;;;;;;;-8.58;100.00;103485.28;5065932;28;20464;-76
2023/02/08 06:26:53;;;;;;;31.13;14.03;;;;;;;-8.58;100.00;103482.75;5049780;28;20484;-77
2023/02/08 06:29:19;;;;;;;27.37;13.33;;;;;;;-8.55;100.00;103487.19;5082441;28;20892;-78
2023/02/08 06:31:46;;;;;;;28.57;13.47;;;;;;;-8.51;100.00;103491.78;5089545;28;20470;-77
2023/02/08 06:34:12;;;;;;;25.53;14.23;;;;;;;-8.46;100.00;103483.00;5092789;28;20785;-77
2023/02/08 06:36:39;;;;;;;31.53;14.70;;;;;;;-8.50;100.00;103486.88;5071837;28;20458;-77
2023/02/08 06:39:07;;;;;;;28.73;13.67;;;;;;;-8.42;100.00;103490.19;5079165;28;20555;-78
2023/02/08 06:41:34;;;;;;;28.83;13.43;;;;;;;-8.40;100.00;103491.19;5087610;28;20442;-78
2023/02/08 06:44:01;;;;;;;29.57;14.57;;;;;;;-8.38;100.00;103493.09;5076708;28;20873;-77
2023/02/08 06:46:28;;;;;;;29.20;13.10;;;;;;;-8.33;100.00;103498.63;5084058;28;20509;-78
2023/02/08 06:48:56;;;;;;;29.33;13.97;;;;;;;-8.35;100.00;103507.72;5078473;28;20818;-77
2023/02/08 06:51:23;;;;;;;33.67;15.77;;;;;;;-8.30;100.00;103506.53;5080887;28;20487;-78
2023/02/08 06:53:50;;;;;;;31.07;14.50;;;;;;;-8.32;100.00;103500.38;5085395;28;20459;-77
2023/02/08 06:56:18;;;;;;;31.97;15.77;;;;;;;-8.25;100.00;103510.38;5082387;28;20518;-77
2023/02/08 06:58:45;;;;;;;34.30;14.93;;;;;;;-8.19;100.00;103505.00;5088885;28;20475;-78
2023/02/08 07:01:12;;;;;;;31.97;15.03;;;;;;;-8.16;100.00;103492.66;5067834;28;20464;-78
2023/02/08 07:03:38;;;;;;;31.33;14.70;;;;;;;-8.12;100.00;103506.50;5074831;28;20547;-80
2023/02/08 07:06:05;;;;;;;36.90;16.77;;;;;;;-8.09;100.00;103505.16;5086155;28;20494;-77
2023/02/08 07:08:32;;;;;;;31.30;15.27;;;;;;;-8.07;100.00;103502.75;5087389;28;20483;-77
2023/02/08 07:10:58;;;;;;;38.03;17.03;;;;;;;-8.08;100.00;103514.53;5069246;28;21041;-77
2023/02/08 07:13:26;;;;;;;35.77;17.27;;;;;;;-8.03;100.00;103510.78;5088876;28;20869;-78
2023/02/08 07:15:53;;;;;;;31.40;14.97;;;;;;;-8.04;100.00;103513.16;5083982;28;20460;-78
2023/02/08 07:18:20;;;;;;;31.40;15.63;;;;;;;-7.97;100.00;103517.19;5068666;28;20556;-79
2023/02/08 07:20:46;;;;;;;32.93;15.03;;;;;;;-7.94;100.00;103517.50;5083515;28;20452;-77
2023/02/08 07:23:13;;;;;;;38.30;17.03;;;;;;;-7.89;100.00;103528.97;5089235;28;20448;-77
2023/02/08 07:25:40;;;;;;;38.03;17.57;;;;;;;-7.91;100.00;103530.47;5083857;28;20464;-78
2023/02/08 07:28:06;;;;;;;40.90;16.37;;;;;;;-7.89;100.00;103531.50;5088149;28;20447;-77
2023/02/08 07:30:34;;;;;;;37.80;17.30;;;;;;;-7.87;100.00;103522.38;5080880;28;20484;-78
2023/02/08 07:33:01;;;;;;;33.00;15.60;;;;;;;-7.82;100.00;103524.59;5076278;28;20835;-78
2023/02/08 07:35:27;;;;;;;42.43;17.77;;;;;;;-7.81;100.00;103528.03;5074565;28;20954;-78
2023/02/08 07:37:54;;;;;;;35.93;17.20;;;;;;;-7.76;100.00;103531.88;5064730;28;20459;-77
2023/02/08 07:40:20;;;;;;;38.00;16.13;;;;;;;-7.75;100.00;103527.75;5069048;28;21168;-79
2023/02/08 07:42:47;;;;;;;31.73;16.93;;;;;;;-7.71;100.00;103532.34;5075528;28;20456;-77
2023/02/08 07:45:26;;;;;;;34.30;17.80;;;;;;;-7.66;100.00;103531.13;5081662;28;20882;-76
2023/02/08 07:47:54;;;;;;;45.47;21.20;;;;;;;-7.61;100.00;103535.00;5082288;28;20951;-81
2023/02/08 07:50:21;;;;;;;33.63;17.50;;;;;;;-7.56;100.00;103526.19;5065573;28;21000;-78
2023/02/08 07:52:47;;;;;;;39.67;16.77;;;;;;;-7.48;100.00;103527.78;5078162;28;20552;-78
2023/02/08 07:55:15;;;;;;;35.10;18.37;;;;;;;-7.40;100.00;103525.06;5070778;28;20971;-78
2023/02/08 07:57:42;;;;;;;40.07;18.67;;;;;;;-7.34;100.00;103523.13;5083509;28;20808;-80
2023/02/08 08:00:10;;;;;;;41.00;17.30;;;;;;;-7.28;100.00;103527.13;5081906;28;20882;-77
2023/02/08 08:02:39;;;;;;;42.60;19.83;;;;;;;-7.21;100.00;103527.66;5090586;28;21121;-78
2023/02/08 08:05:08;;;;;;;41.43;19.93;;;;;;;-7.15;100.00;103526.59;5068673;28;20451;-78
2023/02/08 08:07:36;;;;;;;39.83;19.93;;;;;;;-7.09;100.00;103521.19;5065244;28;20452;-77
2023/02/08 08:10:02;;;;;;;38.73;20.00;;;;;;;-7.04;100.00;103528.47;5098358;28;21048;-78
2023/02/08 08:12:29;;;;;;;38.03;18.47;;;;;;;-6.96;100.00;103530.84;5088179;28;20485;-77
2023/02/08 08:14:56;;;;;;;40.50;18.73;;;;;;;-6.90;100.00;103536.47;5087224;28;20558;-78
2023/02/08 08:17:22;;;;;;;41.70;19.57;;;;;;;-6.81;100.00;103532.22;5088165;28;21014;-78
2023/02/08 08:19:49;;;;;;;38.40;19.43;;;;;;;-6.74;100.00;103531.16;5091357;28;20538;-78
2023/02/08 08:22:17;;;;;;;45.57;18.53;;;;;;;-6.65;100.00;103537.03;5066209;28;20571;-77
2023/02/08 08:24:43;;;;;;;43.63;20.93;;;;;;;-6.59;100.00;103534.19;5071590;28;21074;-77
2023/02/08 08:27:10;;;;;;;42.43;19.77;;;;;;;-6.50;100.00;103533.34;5091495;28;20461;-77
2023/02/08 08:29:37;;;;;;;35.77;18.77;;;;;;;-6.38;100.00;103535.22;5090664;28;20471;-77
2023/02/08 08:32:04;;;;;;;40.40;18.70;;;;;;;-6.30;100.00;103537.69;5071064;28;20463;-77
2023/02/08 08:34:31;;;;;;;44.50;20.37;;;;;;;-6.21;100.00;103541.78;5070240;28;20456;-77
2023/02/08 08:36:59;;;;;;;48.83;20.70;;;;;;;-6.17;100.00;103536.25;5090028;28;20461;-77
2023/02/08 08:39:27;;;;;;;45.80;20.83;;;;;;;-6.09;100.00;103532.72;5070080;28;20507;-77
2023/02/08 08:41:53;;;;;;;44.50;20.93;;;;;;;-6.01;100.00;103539.38;5078485;28;20821;-78
2023/02/08 08:44:20;;;;;;;42.70;20.30;;;;;;;-5.92;100.00;103539.25;5082391;28;20494;-76
2023/02/08 08:46:46;;;;;;;40.57;21.13;;;;;;;-5.84;100.00;103532.28;5080730;28;20513;-76
2023/02/08 08:49:13;;;;;;;51.67;22.30;;;;;;;-5.77;100.00;103529.53;5069594;28;21029;-76
2023/02/08 08:51:40;;;;;;;46.90;22.50;;;;;;;-5.70;100.00;103524.22;5087443;28;20460;-76
2023/02/08 08:54:06;;;;;;;46.10;21.50;;;;;;;-5.64;100.00;103523.88;5084608;28;20535;-76
2023/02/08 08:56:34;;;;;;;40.80;21.40;;;;;;;-5.53;100.00;103525.69;5075351;28;20459;-76
2023/02/08 08:59:01;;;;;;;42.50;21.73;;;;;;;-5.43;100.00;103525.72;5079259;28;20472;-76
2023/02/08 09:01:29;;;;;;;48.70;21.67;;;;;;;-5.38;100.00;103529.53;5082174;28;20456;-76
2023/02/08 09:03:56;;;;;;;49.03;24.17;;;;;;;-5.30;100.00;103534.38;5067069;28;20447;-77
2023/02/08 09:06:22;;;;;;;48.63;24.00;;;;;;;-5.22;100.00;103539.38;5084366;28;20546;-77
2023/02/08 09:08:49;;;;;;;50.60;22.63;;;;;;;-5.19;100.00;103539.63;5065885;28;20481;-78
2023/02/08 09:11:16;;;;;;;51.23;23.83;;;;;;;-5.11;100.00;103539.38;5089340;28;20801;-77
2023/02/08 09:13:43;;;;;;;59.40;24.43;;;;;;;-5.00;100.00;103536.97;5074040;28;20482;-77
2023/02/08 09:16:13;;;;;;;44.17;21.93;;;;;;;-4.90;100.00;103540.31;5065027;28;20456;-77
2023/02/08 09:18:40;;;;;;;48.97;23.10;;;;;;;-4.88;100.00;103541.31;5092288;28;20559;-77
2023/02/08 09:21:08;;;;;;;46.97;21.50;;;;;;;-4.83;100.00;103546.03;5091341;28;20448;-77
2023/02/08 09:23:34;;;;;;;50.80;23.33;;;;;;;-4.78;100.00;103542.22;5074155;28;20448;-77
2023/02/08 09:26:02;;;;;;;48.60;21.80;;;;;;;-4.69;100.00;103547.16;5084204;28;20484;-77
2023/02/08 09:28:28;;;;;;;46.00;20.07;;;;;;;-4.65;100.00;103538.13;5065959;28;20492;-77
2023/02/08 09:30:56;;;;;;;53.40;26.97;;;;;;;-4.57;100.00;103543.09;5082574;28;20449;-76
2023/02/08 09:33:23;;;;;;;48.27;23.10;;;;;;;-4.51;100.00;103546.91;5086043;28;20483;-76
2023/02/08 09:35:49;;;;;;;54.17;23.00;;;;;;;-4.42;100.00;103548.53;5074332;28;20465;-76
2023/02/08 09:38:16;;;;;;;51.40;24.00;;;;;;;-4.41;100.00;103550.34;5069441;28;20568;-76
2023/02/08 09:40:50;;;;;;;46.50;23.60;;;;;;;-4.33;100.00;103550.94;5062795;28;20460;-76
2023/02/08 09:43:22;;;;;;;59.33;29.10;;;;;;;-4.28;100.00;103546.25;5067965;28;20466;-77
2023/02/08 09:45:56;;;;;;;48.73;24.40;;;;;;;-4.20;100.00;103543.53;5083682;28;20517;-76
2023/02/08 09:48:26;;;;;;;51.70;22.13;;;;;;;-4.18;100.00;103552.19;5083010;28;20907;-77
2023/02/08 09:50:59;;;;;;;48.80;22.23;;;;;;;-4.09;100.00;103551.16;5086645;28;20481;-76
2023/02/08 09:53:33;;;;;;;58.07;22.97;;;;;;;-4.04;100.00;103542.25;5060635;28;20838;-76
2023/02/08 09:56:03;;;;;;;52.77;22.77;;;;;;;-4.02;100.00;103546.69;5077707;28;20469;-76
2023/02/08 09:58:35;;;;;;;70.90;32.43;;;;;;;-3.97;100.00;103543.59;5087477;28;20570;-76
2023/02/08 10:01:03;;;;;;;58.77;26.13;;;;;;;-3.86;100.00;103545.38;5083517;28;20475;-77
2023/02/08 10:03:35;;;;;;;55.00;22.50;;;;;;;-3.82;100.00;103549.94;5067675;28;20823;-76
2023/02/08 10:06:03;;;;;;;53.80;22.27;;;;;;;-3.79;100.00;103542.53;5064778;28;20451;-76
2023/02/08 10:08:31;;;;;;;54.27;24.33;;;;;;;-3.76;100.00;103544.41;5065368;28;20482;-76
2023/02/08 10:11:08;;;;;;;53.17;22.33;;;;;;;-3.69;100.00;103545.03;5080880;28;21093;-76
2023/02/08 10:14:00;;;;;;;55.83;23.17;;;;;;;-3.66;100.00;103541.81;5067353;28;20505;-76
2023/02/08 10:16:43;;;;;;;50.10;22.47;;;;;;;-3.52;100.00;103546.34;5089801;28;20686;-76
2023/02/08 10:19:29;;;;;;;55.77;24.13;;;;;;;-3.51;100.00;103545.59;5066615;28;20487;-76
2023/02/08 10:22:09;;;;;;;50.20;21.73;;;;;;;-3.42;100.00;103550.50;5086215;28;20483;-76
2023/02/08 10:25:01;;;;;;;47.57;21.73;;;;;;;-3.36;100.00;103550.09;5083164;28;20455;-76
2023/02/08 10:27:39;;;;;;;47.70;22.43;;;;;;;-3.33;100.00;103551.22;5078481;28;20456;-76
2023/02/08 10:30:20;;;;;;;42.93;21.40;;;;;;;-3.32;100.00;103555.56;5085323;28;20471;-76
2023/02/08 10:32:58;;;;;;;43.90;20.50;;;;;;;-3.21;100.00;103560.63;5068061;28;20467;-76
2023/02/08 10:35:30;;;;;;;53.67;23.70;;;;;;;-3.15;100.00;103551.78;5065079;28;20772;-76
2023/02/08 10:37:58;;;;;;;58.37;26.23;;;;;;;-3.10;100.00;103544.44;5085683;28;20453;-76
2023/02/08 10:40:32;;;;;;;39.77;22.40;;;;;;;-3.05;100.00;103549.13;5083865;28;20451;-76
2023/02/08 10:43:09;;;;;;;48.13;24.40;;;;;;;-2.98;100.00;103544.50;5079056;28;20444;-76
2023/02/08 10:45:43;;;;;;;44.80;21.77;;;;;;;-2.92;100.00;103543.31;5080805;28;20456;-76
2023/02/08 10:48:15;;;;;;;38.60;19.10;;;;;;;-2.87;100.00;103542.00;5073787;28;20531;-76
2023/02/08 10:50:46;;;;;;;35.43;18.70;;;;;;;-2.82;100.00;103539.78;5058575;28;20988;-76
2023/02/08 10:53:15;;;;;;;28.50;16.03;;;;;;;-2.81;100.00;103531.34;5082806;28;20486;-76
2023/02/08 10:55:43;;;;;;;29.43;14.80;;;;;;;-2.75;100.00;103539.47;5078108;28;20467;-76
2023/02/08 10:58:16;;;;;;;33.23;18.63;;;;;;;-2.70;100.00;103539.81;5077877;28;20466;-76
2023/02/08 11:00:44;;;;;;;41.50;19.93;;;;;;;-2.65;100.00;103537.63;5066461;28;20522;-77
2023/02/08 11:03:17;;;;;;;31.53;16.80;;;;;;;-2.58;100.00;103535.63;5084612;28;20201;-77
2023/02/08 11:05:45;;;;;;;24.10;13.63;;;;;;;-2.53;100.00;103534.28;5055785;28;20583;-76
2023/02/08 11:08:16;;;;;;;32.23;15.10;;;;;;;-2.49;100.00;103536.28;5080055;28;20529;-76
2023/02/08 11:10:46;;;;;;;30.97;15.00;;;;;;;-2.46;100.00;103527.97;5080090;28;20450;-74
2023/02/08 11:13:19;;;;;;;21.23;12.80;;;;;;;-2.38;100.00;103531.97;5073438;28;20902;-74
2023/02/08 11:15:47;;;;;;;27.07;12.93;;;;;;;-2.31;100.00;103533.31;5082587;28;20197;-74
2023/02/08 11:18:20;;;;;;;28.27;13.70;;;;;;;-2.31;100.00;103521.41;5082735;28;20510;-74